Time;durP1;ratioP1;P1;durP2;ratioP2;P2;SDS_P1;SDS_P2;PMS_P1;PMS_P2;Temp;Humidity;BMP_temperature;BMP_pressure;BME280_temperature;BME280_humidity;BME280_pressure;Samples;Min_cycle;Max_cycle;Signal;HPM_P1;HPM_P2
2022/10/12 00:01:20;;;;;;;6.22;2.47;;;13.60;99.90;;;;;;5028711;28;20080;-76
2022/10/12 00:03:46;;;;;;;6.65;2.97;;;13.70;99.90;;;;;;5026473;28;20045;-75
2022/10/12 00:06:14;;;;;;;6.13;2.38;;;13.70;99.90;;;;;;5030015;28;20088;-75
2022/10/12 00:08:41;;;;;;;7.35;2.58;;;13.70;99.90;;;;;;5030355;28;21238;-76
2022/10/12 00:11:11;;;;;;;6.35;2.60;;;13.80;99.90;;;;;;5028765;28;20033;-77
2022/10/12 00:13:37;;;;;;;6.53;2.05;;;13.70;99.90;;;;;;5029762;28;20049;-76
2022/10/12 00:16:04;;;;;;;6.88;3.35;;;13.80;99.90;;;;;;5029486;28;20555;-75
2022/10/12 00:18:31;;;;;;;8.18;2.85;;;13.90;99.90;;;;;;5026947;28;20459;-76
2022/10/12 00:21:06;;;;;;;6.57;2.80;;;13.90;99.90;;;;;;5032397;28;20037;-76
2022/10/12 00:23:32;;;;;;;5.43;2.90;;;13.90;99.90;;;;;;5032127;28;20124;-76
2022/10/12 00:26:03;;;;;;;9.60;3.30;;;13.90;99.90;;;;;;5027521;28;20136;-76
2022/10/12 00:28:29;;;;;;;5.88;2.95;;;13.90;99.90;;;;;;5026378;28;20761;-75
2022/10/12 00:30:55;;;;;;;4.10;2.53;;;13.90;99.90;;;;;;5028078;28;20037;-75
2022/10/12 00:33:21;;;;;;;7.47;2.75;;;13.90;99.90;;;;;;5033833;28;20448;-75
2022/10/12 00:35:46;;;;;;;5.95;2.60;;;13.70;99.90;;;;;;5028817;28;20477;-75
2022/10/12 00:38:12;;;;;;;4.50;2.72;;;13.70;99.90;;;;;;5026892;28;20029;-76
2022/10/12 00:40:37;;;;;;;12.40;2.90;;;13.70;99.90;;;;;;5028792;28;20357;-76
2022/10/12 00:43:03;;;;;;;6.28;3.10;;;13.70;99.90;;;;;;5036912;28;20132;-76
2022/10/12 00:45:31;;;;;;;6.22;3.45;;;13.70;99.90;;;;;;5029581;28;20120;-77
2022/10/12 00:47:58;;;;;;;11.75;3.97;;;13.70;99.90;;;;;;5030156;28;20126;-75
2022/10/12 00:50:31;;;;;;;6.00;3.28;;;13.50;99.90;;;;;;5027009;28;20032;-76
2022/10/12 00:53:05;;;;;;;10.48;3.95;;;13.60;99.90;;;;;;5026422;28;20032;-75
2022/10/12 00:55:37;;;;;;;;;;;13.60;99.90;;;;;;5033122;28;20063;-75
2022/10/12 00:58:06;;;;;;;6.13;3.08;;;13.70;99.90;;;;;;5027161;28;20007;-75
2022/10/12 01:00:32;;;;;;;6.63;3.05;;;13.40;99.90;;;;;;5025966;28;20061;-75
2022/10/12 01:02:59;;;;;;;7.53;3.33;;;13.30;99.90;;;;;;5029126;28;20041;-75
2022/10/12 01:05:25;;;;;;;6.30;2.88;;;13.40;99.90;;;;;;5027918;28;20476;-75
2022/10/12 01:07:51;;;;;;;7.60;2.80;;;13.30;99.90;;;;;;5025703;28;20036;-76
2022/10/12 01:10:17;;;;;;;6.15;2.80;;;13.20;99.90;;;;;;5027165;28;20030;-76
2022/10/12 01:12:46;;;;;;;6.70;2.72;;;13.10;99.90;;;;;;5029311;28;20034;-75
2022/10/12 01:15:12;;;;;;;7.55;3.08;;;13.10;99.90;;;;;;5026543;28;20126;-76
2022/10/12 01:17:58;;;;;;;6.45;3.38;;;13.10;99.90;;;;;;5028866;28;20029;-76
2022/10/12 01:20:48;;;;;;;6.82;3.42;;;13.20;99.90;;;;;;5025484;28;20667;-75
2022/10/12 01:23:17;;;;;;;9.95;3.25;;;13.10;99.90;;;;;;5025679;28;20072;-75
2022/10/12 01:25:48;;;;;;;7.70;2.55;;;13.10;99.90;;;;;;5023625;28;20380;-76
2022/10/12 01:28:42;;;;;;;6.05;3.17;;;12.90;99.90;;;;;;5026568;28;20529;-75
2022/10/12 01:31:22;;;;;;;5.97;3.10;;;12.90;99.90;;;;;;5030027;28;20553;-76
2022/10/12 01:33:54;;;;;;;8.32;3.30;;;12.90;99.90;;;;;;5033516;28;20029;-77
2022/10/12 01:36:32;;;;;;;6.90;2.53;;;12.90;99.90;;;;;;5027803;28;20032;-75
2022/10/12 01:39:07;;;;;;;9.20;3.55;;;13.00;99.90;;;;;;5028753;28;20029;-76
2022/10/12 01:41:42;;;;;;;5.50;2.83;;;13.00;99.90;;;;;;5029751;28;20127;-75
2022/10/12 01:44:08;;;;;;;9.63;2.90;;;13.00;99.90;;;;;;5027062;28;20460;-76
2022/10/12 01:46:39;;;;;;;9.10;3.00;;;13.10;99.90;;;;;;5031133;28;20053;-75
2022/10/12 01:49:05;;;;;;;8.07;3.47;;;13.10;99.90;;;;;;5026695;28;20100;-76
2022/10/12 01:51:52;;;;;;;5.85;3.13;;;13.20;99.90;;;;;;5027368;28;20040;-76
2022/10/12 01:54:32;;;;;;;10.75;3.97;;;13.00;99.90;;;;;;5029897;28;20032;-75
2022/10/12 01:57:16;;;;;;;6.93;3.00;;;12.80;99.90;;;;;;5026683;28;20036;-76
2022/10/12 02:00:03;;;;;;;8.68;3.20;;;12.90;99.90;;;;;;5033605;28;20380;-75
2022/10/12 02:02:34;;;;;;;6.40;3.08;;;12.80;99.90;;;;;;5025718;28;20037;-75
2022/10/12 02:05:15;;;;;;;5.15;2.70;;;12.50;99.90;;;;;;5026128;28;20388;-75
2022/10/12 02:07:48;;;;;;;7.93;2.83;;;12.30;99.90;;;;;;5026971;28;20038;-76
2022/10/12 02:10:21;;;;;;;7.35;3.35;;;12.50;99.90;;;;;;5028326;28;20035;-75
2022/10/12 02:12:48;;;;;;;8.32;3.40;;;12.60;99.90;;;;;;5028900;28;20029;-75
2022/10/12 02:15:16;;;;;;;7.50;3.35;;;12.70;99.90;;;;;;5029357;28;20112;-75
2022/10/12 02:17:46;;;;;;;7.65;2.88;;;12.90;99.90;;;;;;5033529;28;20040;-76
2022/10/12 02:20:15;;;;;;;6.07;3.25;;;12.90;99.90;;;;;;5032864;28;20487;-75
2022/10/12 02:22:45;;;;;;;7.47;3.75;;;12.80;99.90;;;;;;5030588;28;20045;-76
2022/10/12 02:25:14;;;;;;;7.03;4.00;;;12.70;99.90;;;;;;5034555;28;20025;-76
2022/10/12 02:27:45;;;;;;;7.93;4.05;;;12.60;99.90;;;;;;5036331;28;20495;-76
2022/10/12 02:30:11;;;;;;;7.75;3.95;;;12.60;99.90;;;;;;5032510;28;20383;-76
2022/10/12 02:33:04;;;;;;;8.70;3.22;;;12.60;99.90;;;;;;5032913;28;20044;-75
2022/10/12 02:35:49;;;;;;;7.97;3.15;;;12.60;99.90;;;;;;5028976;28;20037;-75
2022/10/12 02:38:34;;;;;;;8.05;2.95;;;12.70;99.90;;;;;;5028923;28;20029;-75
2022/10/12 02:41:04;;;;;;;5.43;3.00;;;12.70;99.90;;;;;;5028503;28;20078;-75
2022/10/12 02:43:52;;;;;;;7.07;3.05;;;12.60;99.90;;;;;;5032576;28;20052;-75
2022/10/12 02:46:19;;;;;;;6.57;3.13;;;12.60;99.90;;;;;;5029304;28;20065;-75
2022/10/12 02:48:46;;;;;;;6.97;3.50;;;12.40;99.90;;;;;;5029471;28;20037;-75
2022/10/12 02:51:13;;;;;;;6.38;2.80;;;12.60;99.90;;;;;;5029649;28;20025;-76
2022/10/12 02:53:39;;;;;;;6.72;2.58;;;12.50;99.90;;;;;;5032946;28;20582;-75
2022/10/12 02:56:11;;;;;;;6.88;3.08;;;12.60;99.90;;;;;;5028161;28;20029;-76
2022/10/12 02:58:37;;;;;;;8.95;3.53;;;12.60;99.90;;;;;;5029280;28;20040;-76
2022/10/12 03:01:03;;;;;;;8.43;2.90;;;12.70;99.90;;;;;;5036311;28;20033;-74
2022/10/12 03:03:29;;;;;;;7.70;2.90;;;12.70;99.90;;;;;;5023575;28;20038;-75
2022/10/12 03:05:54;;;;;;;8.10;2.60;;;12.80;99.90;;;;;;5023481;28;20691;-75
2022/10/12 03:08:20;;;;;;;9.25;3.35;;;12.80;99.90;;;;;;5030846;28;20427;-75
2022/10/12 03:10:46;;;;;;;7.93;3.38;;;12.80;99.90;;;;;;5024445;28;20028;-75
2022/10/12 03:13:11;;;;;;;7.22;2.88;;;12.70;99.90;;;;;;5025235;28;20050;-75
2022/10/12 03:15:37;;;;;;;6.68;2.97;;;12.60;99.90;;;;;;5023747;28;20083;-74
2022/10/12 03:18:03;;;;;;;7.93;3.22;;;12.80;99.90;;;;;;5023296;28;20029;-75
2022/10/12 03:20:28;;;;;;;7.22;3.55;;;12.70;99.90;;;;;;5022019;28;20029;-74
2022/10/12 03:22:54;;;;;;;8.85;3.97;;;12.60;99.90;;;;;;5021338;28;20105;-74
2022/10/12 03:25:20;;;;;;;6.28;3.15;;;12.60;99.90;;;;;;5025346;28;20107;-74
2022/10/12 03:27:45;;;;;;;5.57;2.90;;;12.50;99.90;;;;;;5026913;28;20029;-74
2022/10/12 03:30:11;;;;;;;5.88;2.90;;;12.30;99.90;;;;;;5023935;28;20025;-75
2022/10/12 03:32:38;;;;;;;7.95;3.88;;;12.30;99.90;;;;;;5027181;28;20444;-74
2022/10/12 03:35:04;;;;;;;7.80;3.17;;;12.30;99.90;;;;;;5027512;28;20033;-76
2022/10/12 03:37:30;;;;;;;7.60;2.95;;;12.30;99.90;;;;;;5022605;28;20057;-76
2022/10/12 03:39:56;;;;;;;7.00;3.30;;;12.40;99.90;;;;;;5030225;28;20076;-76
2022/10/12 03:42:21;;;;;;;12.20;3.17;;;12.30;99.90;;;;;;5025711;28;20045;-76
2022/10/12 03:44:47;;;;;;;6.30;3.13;;;12.40;99.90;;;;;;5026982;28;20026;-76
2022/10/12 03:47:12;;;;;;;6.10;3.25;;;12.40;99.90;;;;;;5027081;28;20067;-76
2022/10/12 03:49:38;;;;;;;6.65;3.17;;;12.30;99.90;;;;;;5031511;28;20522;-76
2022/10/12 03:52:04;;;;;;;5.55;2.53;;;12.30;99.90;;;;;;5029915;28;20043;-77
2022/10/12 03:54:29;;;;;;;9.50;3.55;;;12.30;99.90;;;;;;5031100;28;20048;-76
2022/10/12 03:56:58;;;;;;;15.18;3.42;;;12.50;99.90;;;;;;5025958;28;20030;-76
2022/10/12 03:59:24;;;;;;;7.55;3.15;;;12.50;99.90;;;;;;5029323;28;20028;-76
2022/10/12 04:01:50;;;;;;;15.10;6.55;;;12.50;99.90;;;;;;5018818;28;20029;-75
2022/10/12 04:04:15;;;;;;;11.20;4.30;;;12.40;99.90;;;;;;5022995;28;20033;-77
2022/10/12 04:06:41;;;;;;;36.40;22.17;;;12.30;99.90;;;;;;5022599;28;20108;-76
2022/10/12 04:09:07;;;;;;;19.50;12.57;;;12.40;99.90;;;;;;5019626;28;20380;-76
2022/10/12 04:11:32;;;;;;;9.50;5.70;;;12.40;99.90;;;;;;5028758;28;20092;-76
2022/10/12 04:13:58;;;;;;;11.43;4.10;;;12.30;99.90;;;;;;5018850;28;20053;-76
2022/10/12 04:16:23;;;;;;;8.80;3.63;;;12.10;99.90;;;;;;5022023;28;20043;-75
2022/10/12 04:18:49;;;;;;;8.77;3.70;;;12.00;99.90;;;;;;5028074;28;20033;-75
2022/10/12 04:21:15;;;;;;;9.00;3.83;;;11.90;99.90;;;;;;5021951;28;20033;-76
2022/10/12 04:23:42;;;;;;;6.97;3.30;;;11.90;99.90;;;;;;5019660;28;20045;-75
2022/10/12 04:26:08;;;;;;;6.63;3.25;;;11.90;99.90;;;;;;5020706;28;20038;-77
2022/10/12 04:28:34;;;;;;;7.63;3.40;;;12.00;99.90;;;;;;5019319;28;20208;-76
2022/10/12 04:31:00;;;;;;;7.28;4.22;;;12.00;99.90;;;;;;5020228;28;20479;-76
2022/10/12 04:33:26;;;;;;;5.97;3.15;;;11.90;99.90;;;;;;5020384;28;20476;-76
2022/10/12 04:35:51;;;;;;;8.00;3.95;;;12.00;99.90;;;;;;5022909;28;20044;-76
2022/10/12 04:38:17;;;;;;;5.90;2.95;;;12.10;99.90;;;;;;5018280;28;20044;-77
2022/10/12 04:40:47;;;;;;;7.82;3.75;;;12.20;99.90;;;;;;5020851;28;20572;-76
2022/10/12 04:43:14;;;;;;;6.47;3.40;;;12.20;99.90;;;;;;5019918;28;20449;-77
2022/10/12 04:45:40;;;;;;;7.82;3.38;;;12.30;99.90;;;;;;5020117;28;20087;-76
2022/10/12 04:48:05;;;;;;;6.53;2.85;;;12.30;99.90;;;;;;5022147;28;20029;-75
2022/10/12 04:50:31;;;;;;;12.32;3.28;;;12.30;99.90;;;;;;5019044;28;20464;-76
2022/10/12 04:52:56;;;;;;;6.40;3.25;;;12.40;99.90;;;;;;5019512;28;20022;-76
2022/10/12 04:55:22;;;;;;;9.45;3.70;;;12.50;99.90;;;;;;5022538;28;20491;-76
2022/10/12 04:57:48;;;;;;;6.00;3.03;;;12.50;99.90;;;;;;5025347;28;20051;-76
2022/10/12 05:00:15;;;;;;;5.93;2.83;;;12.70;99.90;;;;;;5023223;28;20031;-76
2022/10/12 05:02:41;;;;;;;8.00;2.75;;;12.70;99.90;;;;;;5025830;28;20045;-76
2022/10/12 05:05:07;;;;;;;6.20;3.55;;;12.70;99.90;;;;;;5022480;28;20036;-76
2022/10/12 05:07:33;;;;;;;6.72;3.08;;;12.70;99.90;;;;;;5027755;28;20040;-75
2022/10/12 05:09:59;;;;;;;9.65;3.53;;;12.80;99.90;;;;;;5024832;28;20033;-76
2022/10/12 05:12:24;;;;;;;6.32;2.97;;;12.70;99.90;;;;;;5022309;28;20127;-76
2022/10/12 05:14:50;;;;;;;12.50;4.20;;;12.60;99.90;;;;;;5023041;28;20049;-75
2022/10/12 05:17:16;;;;;;;8.52;3.80;;;12.60;99.90;;;;;;5027100;28;20037;-76
2022/10/12 05:19:41;;;;;;;9.68;3.58;;;12.60;99.90;;;;;;5024292;28;20049;-76
2022/10/12 05:22:07;;;;;;;6.75;2.90;;;12.50;99.90;;;;;;5024749;28;20037;-75
2022/10/12 05:24:32;;;;;;;5.72;3.08;;;12.60;99.90;;;;;;5025201;28;20043;-76
2022/10/12 05:26:58;;;;;;;7.68;3.65;;;12.50;99.90;;;;;;5021549;28;20025;-76
2022/10/12 05:29:24;;;;;;;9.05;3.63;;;12.40;99.90;;;;;;5021931;28;20037;-76
2022/10/12 05:31:49;;;;;;;9.13;3.88;;;12.40;99.90;;;;;;5023423;28;20396;-76
2022/10/12 05:34:15;;;;;;;9.98;3.97;;;12.40;99.90;;;;;;5021919;28;20032;-76
2022/10/12 05:36:40;;;;;;;9.88;3.80;;;12.40;99.90;;;;;;5022358;28;20092;-76
2022/10/12 05:39:06;;;;;;;9.10;4.45;;;12.40;99.90;;;;;;5023814;28;20025;-75
2022/10/12 05:41:32;;;;;;;13.07;3.70;;;12.40;99.90;;;;;;5031024;28;20033;-74
2022/10/12 05:43:57;;;;;;;5.55;3.20;;;12.30;99.90;;;;;;5022807;28;20600;-75
2022/10/12 05:46:23;;;;;;;5.32;3.08;;;12.30;99.90;;;;;;5028897;28;20045;-75
2022/10/12 05:48:49;;;;;;;5.70;2.72;;;12.50;99.90;;;;;;5027964;28;20051;-75
2022/10/12 05:51:14;;;;;;;14.55;4.55;;;12.50;99.90;;;;;;5026123;28;20064;-75
2022/10/12 05:53:40;;;;;;;48.83;6.90;;;12.50;99.90;;;;;;5030734;28;20044;-74
2022/10/12 05:56:06;;;;;;;11.05;3.58;;;12.70;99.90;;;;;;5037008;28;20040;-74
2022/10/12 05:58:31;;;;;;;7.35;3.42;;;12.70;99.90;;;;;;5030234;28;20021;-73
2022/10/12 06:01:11;;;;;;;9.27;3.78;;;12.60;99.90;;;;;;5032414;28;20044;-73
2022/10/12 06:03:37;;;;;;;9.10;3.55;;;12.60;99.90;;;;;;5047381;28;20072;-74
2022/10/12 06:06:05;;;;;;;8.80;3.97;;;12.50;99.90;;;;;;5040229;28;20060;-74
2022/10/12 06:08:31;;;;;;;8.43;2.83;;;12.60;99.90;;;;;;5034629;28;20467;-73
2022/10/12 06:10:57;;;;;;;6.68;2.42;;;12.60;99.90;;;;;;5025652;28;20025;-73
2022/10/12 06:13:24;;;;;;;9.98;3.30;;;12.70;99.90;;;;;;5026394;28;20084;-73
2022/10/12 06:15:50;;;;;;;7.90;3.47;;;12.80;99.90;;;;;;5042004;28;20036;-73
2022/10/12 06:18:17;;;;;;;6.72;2.92;;;12.80;99.90;;;;;;5042190;28;20036;-73
2022/10/12 06:20:51;;;;;;;6.18;3.25;;;12.60;99.90;;;;;;5042475;28;20060;-72
2022/10/12 06:23:17;;;;;;;8.00;4.07;;;12.60;99.90;;;;;;5024801;28;20095;-73
2022/10/12 06:25:48;;;;;;;7.50;3.80;;;12.50;99.90;;;;;;5027104;28;20100;-73
2022/10/12 06:28:15;;;;;;;6.75;3.95;;;12.40;99.90;;;;;;5019273;28;20032;-73
2022/10/12 06:30:41;;;;;;;10.82;3.38;;;12.40;99.90;;;;;;5022473;28;20025;-73
2022/10/12 06:33:08;;;;;;;7.38;3.60;;;12.40;99.90;;;;;;5019775;28;20644;-72
2022/10/12 06:35:34;;;;;;;11.27;3.70;;;12.40;99.90;;;;;;5019328;28;20314;-73
2022/10/12 06:37:59;;;;;;;6.47;3.17;;;12.50;99.90;;;;;;5025410;28;20025;-72
2022/10/12 06:40:25;;;;;;;6.28;3.35;;;12.50;99.90;;;;;;5023858;28;20029;-72
2022/10/12 06:42:51;;;;;;;11.43;3.47;;;12.50;99.90;;;;;;5025328;28;20040;-72
2022/10/12 06:45:17;;;;;;;6.60;3.17;;;12.50;99.90;;;;;;5024291;28;20063;-72
2022/10/12 06:47:43;;;;;;;6.90;3.30;;;12.60;99.90;;;;;;5025860;28;20672;-72
2022/10/12 06:50:09;;;;;;;9.48;3.10;;;12.70;99.90;;;;;;5033887;28;20033;-72
2022/10/12 06:52:35;;;;;;;9.50;4.30;;;12.70;99.90;;;;;;5018130;28;20045;-71
2022/10/12 06:55:02;;;;;;;11.57;3.83;;;12.70;99.90;;;;;;5023508;28;20372;-73
2022/10/12 06:57:27;;;;;;;6.38;3.20;;;12.80;99.90;;;;;;5020399;28;20148;-72
2022/10/12 06:59:53;;;;;;;8.55;3.53;;;12.80;99.90;;;;;;5023155;28;20036;-72
2022/10/12 07:02:19;;;;;;;6.90;3.60;;;12.80;99.90;;;;;;5028812;28;20091;-71
2022/10/12 07:04:49;;;;;;;7.13;3.50;;;12.80;99.90;;;;;;5025185;28;20035;-72
2022/10/12 07:07:15;;;;;;;8.80;3.60;;;12.80;99.90;;;;;;5021494;28;20526;-72
2022/10/12 07:09:41;;;;;;;5.82;2.75;;;12.90;99.90;;;;;;5026418;28;20037;-72
2022/10/12 07:12:07;;;;;;;9.40;3.35;;;12.90;99.90;;;;;;5026198;28;20150;-73
2022/10/12 07:14:32;;;;;;;6.82;3.42;;;13.00;99.90;;;;;;5021637;28;20103;-73
2022/10/12 07:16:58;;;;;;;7.03;3.28;;;13.00;99.90;;;;;;5024932;28;20022;-73
2022/10/12 07:19:23;;;;;;;8.77;3.50;;;13.00;99.90;;;;;;5022810;28;20037;-74
2022/10/12 07:21:49;;;;;;;11.65;4.00;;;13.00;99.90;;;;;;5023085;28;20029;-73
2022/10/12 07:24:15;;;;;;;8.20;4.75;;;13.00;99.90;;;;;;5022375;28;20099;-73
2022/10/12 07:26:40;;;;;;;6.60;3.45;;;13.00;99.90;;;;;;5026941;28;20033;-73
2022/10/12 07:29:06;;;;;;;8.10;3.53;;;13.00;99.90;;;;;;5022679;28;20383;-74
2022/10/12 07:31:32;;;;;;;5.95;3.05;;;13.10;99.90;;;;;;5023622;28;20464;-73
2022/10/12 07:33:57;;;;;;;12.50;3.90;;;13.20;99.90;;;;;;5026589;28;20091;-74
2022/10/12 07:36:23;;;;;;;10.13;3.60;;;13.20;99.90;;;;;;5031562;28;20026;-74
2022/10/12 07:38:49;;;;;;;7.32;3.10;;;13.20;99.90;;;;;;5022161;28;20032;-73
2022/10/12 07:41:15;;;;;;;9.55;3.72;;;13.20;99.90;;;;;;5025277;28;20120;-73
2022/10/12 07:43:41;;;;;;;7.35;3.47;;;13.30;99.90;;;;;;5021187;28;20037;-73
2022/10/12 07:46:07;;;;;;;9.95;3.70;;;13.40;99.90;;;;;;5023201;28;20029;-73
2022/10/12 07:48:34;;;;;;;5.53;3.67;;;13.50;99.90;;;;;;5025392;28;20036;-73
2022/10/12 07:51:07;;;;;;;9.55;3.40;;;13.60;99.90;;;;;;5024266;28;20033;-73
2022/10/12 07:53:34;;;;;;;8.80;3.80;;;13.60;99.90;;;;;;5023792;28;20104;-73
2022/10/12 07:56:01;;;;;;;8.18;4.28;;;13.60;99.90;;;;;;5023821;28;20087;-73
2022/10/12 07:58:27;;;;;;;8.75;3.70;;;13.70;99.90;;;;;;5027961;28;20032;-74
2022/10/12 08:00:52;;;;;;;10.70;3.80;;;13.70;99.90;;;;;;5027790;28;20029;-74
2022/10/12 08:03:18;;;;;;;5.88;3.92;;;13.70;99.90;;;;;;5026497;28;20043;-73
2022/10/12 08:05:44;;;;;;;7.43;4.35;;;13.80;99.90;;;;;;5025579;28;20152;-74
2022/10/12 08:08:10;;;;;;;9.35;3.50;;;13.80;99.90;;;;;;5024722;28;20036;-73
2022/10/12 08:10:36;;;;;;;5.75;3.40;;;13.90;99.90;;;;;;5024430;28;20034;-74
2022/10/12 08:13:02;;;;;;;7.60;3.83;;;13.90;99.90;;;;;;5028883;28;20472;-73
2022/10/12 08:15:28;;;;;;;13.30;4.47;;;14.00;99.90;;;;;;5020251;28;20044;-74
2022/10/12 08:17:53;;;;;;;8.05;3.75;;;14.00;99.90;;;;;;5027877;28;20120;-73
2022/10/12 08:20:19;;;;;;;12.15;4.32;;;13.90;99.90;;;;;;5030126;28;20151;-73
2022/10/12 08:22:45;;;;;;;11.55;4.05;;;13.90;99.90;;;;;;5024740;28;20044;-74
2022/10/12 08:25:11;;;;;;;7.55;3.90;;;14.00;99.90;;;;;;5026198;28;20033;-74
2022/10/12 08:27:37;;;;;;;9.65;4.65;;;14.00;99.90;;;;;;5029099;28;20624;-75
2022/10/12 08:30:04;;;;;;;11.13;3.75;;;14.00;99.90;;;;;;5028863;28;20029;-74
2022/10/12 08:32:31;;;;;;;8.52;3.72;;;14.10;99.90;;;;;;5026416;28;20665;-74
2022/10/12 08:34:57;;;;;;;7.15;4.43;;;14.20;99.90;;;;;;5031500;28;20059;-74
2022/10/12 08:37:22;;;;;;;8.25;4.55;;;14.30;99.90;;;;;;5020273;28;20025;-73
2022/10/12 08:39:48;;;;;;;6.45;3.95;;;14.30;99.90;;;;;;5020140;28;20164;-73
2022/10/12 08:42:38;;;;;;;10.60;4.88;;;14.40;99.90;;;;;;5021344;28;20046;-74
2022/10/12 08:45:21;;;;;;;7.65;4.53;;;14.40;99.90;;;;;;5021325;28;20044;-74
2022/10/12 08:47:54;;;;;;;7.18;4.03;;;14.50;99.90;;;;;;5020023;28;20021;-74
2022/10/12 08:50:45;;;;;;;8.57;4.85;;;14.60;99.90;;;;;;5020367;28;20044;-74
2022/10/12 08:53:43;;;;;;;11.45;5.68;;;14.70;99.90;;;;;;5020191;28;20051;-74
2022/10/12 08:56:08;;;;;;;9.50;4.10;;;14.70;99.90;;;;;;5016646;28;20045;-74
2022/10/12 08:58:37;;;;;;;13.18;4.50;;;14.70;99.90;;;;;;5020327;28;20057;-74
2022/10/12 09:01:42;;;;;;;7.22;4.30;;;14.80;99.90;;;;;;5019858;28;20033;-73
2022/10/12 09:04:28;;;;;;;6.88;4.38;;;14.80;99.90;;;;;;5017310;28;20045;-74
2022/10/12 09:07:18;;;;;;;12.95;4.43;;;14.80;99.90;;;;;;5020385;28;20036;-74
2022/10/12 09:10:05;;;;;;;8.63;4.43;;;14.90;99.90;;;;;;5024675;28;20028;-74
2022/10/12 09:12:36;;;;;;;8.57;4.53;;;15.00;99.90;;;;;;5021411;28;20057;-74
2022/10/12 09:15:13;;;;;;;11.27;5.05;;;15.00;99.90;;;;;;5019813;28;20049;-74
2022/10/12 09:17:50;;;;;;;8.32;4.80;;;15.00;99.90;;;;;;5022191;28;20507;-74
2022/10/12 09:20:22;;;;;;;7.50;4.45;;;15.10;99.90;;;;;;5023011;28;20037;-74
2022/10/12 09:22:55;;;;;;;8.48;4.40;;;15.30;99.90;;;;;;5024618;28;20036;-74
2022/10/12 09:25:25;;;;;;;10.77;4.78;;;15.40;99.90;;;;;;5023747;28;20490;-74
2022/10/12 09:27:51;;;;;;;9.73;4.13;;;15.40;99.90;;;;;;5023184;28;20110;-74
2022/10/12 09:30:18;;;;;;;9.88;4.25;;;15.50;99.90;;;;;;5025568;28;20104;-74
2022/10/12 09:33:08;;;;;;;6.57;3.78;;;15.50;99.90;;;;;;5038584;28;20601;-74
2022/10/12 09:35:35;;;;;;;12.00;4.97;;;15.60;99.90;;;;;;5026684;28;20025;-74
2022/10/12 09:38:02;;;;;;;10.93;4.60;;;15.70;99.90;;;;;;5024307;28;20029;-74
2022/10/12 09:40:34;;;;;;;8.85;4.80;;;15.70;99.90;;;;;;5024050;28;20025;-74
2022/10/12 09:43:02;;;;;;;11.15;4.10;;;15.90;99.90;;;;;;5024234;28;20474;-74
2022/10/12 09:45:31;;;;;;;7.78;4.10;;;16.00;99.90;;;;;;5027334;28;20390;-74
2022/10/12 09:48:17;;;;;;;7.28;4.43;;;16.00;99.90;;;;;;5027543;28;20021;-74
2022/10/12 09:51:04;;;;;;;13.48;4.45;;;16.10;99.90;;;;;;5026940;28;20034;-74
2022/10/12 09:53:37;;;;;;;12.05;4.13;;;16.20;99.90;;;;;;5025501;28;20025;-74
2022/10/12 09:56:05;;;;;;;8.10;4.37;;;16.40;99.90;;;;;;5026342;28;20086;-74
2022/10/12 09:58:42;;;;;;;8.20;3.83;;;16.50;99.90;;;;;;5024661;28;20037;-74
2022/10/12 10:01:20;;;;;;;12.85;4.78;;;16.50;99.90;;;;;;5022440;28;20017;-74
2022/10/12 10:04:07;;;;;;;8.70;4.13;;;16.40;99.90;;;;;;5023108;28;20606;-74
2022/10/12 10:06:33;;;;;;;6.63;3.97;;;16.60;99.90;;;;;;5022620;28;20044;-75
2022/10/12 10:08:59;;;;;;;10.57;4.07;;;16.90;99.90;;;;;;5023202;28;20029;-74
2022/10/12 10:11:28;;;;;;;9.55;3.92;;;16.80;99.90;;;;;;5023371;28;20663;-74
2022/10/12 10:13:54;;;;;;;12.68;4.40;;;16.70;99.90;;;;;;5025748;28;20164;-74
2022/10/12 10:16:24;;;;;;;10.02;4.10;;;16.80;99.90;;;;;;5021981;28;20695;-74
2022/10/12 10:18:53;;;;;;;7.05;3.88;;;16.80;99.90;;;;;;5023505;28;20029;-74
2022/10/12 10:21:29;;;;;;;9.50;3.97;;;16.90;99.90;;;;;;5024334;28;20116;-74
2022/10/12 10:24:03;;;;;;;7.47;3.70;;;17.10;99.90;;;;;;5022981;28;20045;-74
2022/10/12 10:26:49;;;;;;;9.23;4.45;;;17.10;99.90;;;;;;5023737;28;20136;-74
2022/10/12 10:29:22;;;;;;;7.15;3.53;;;17.20;99.90;;;;;;5021480;28;20025;-74
2022/10/12 10:31:50;;;;;;;6.05;3.38;;;17.30;99.90;;;;;;5022701;28;20034;-74
2022/10/12 10:34:16;;;;;;;8.65;3.92;;;17.30;99.90;;;;;;5022747;28;20034;-74
2022/10/12 10:36:54;;;;;;;6.82;4.43;;;17.30;99.90;;;;;;5024058;28;20034;-74
2022/10/12 10:39:23;;;;;;;8.68;3.25;;;17.50;99.90;;;;;;5027122;28;20528;-74
2022/10/12 10:41:49;;;;;;;10.18;4.28;;;17.60;99.90;;;;;;5021099;28;20022;-74
2022/10/12 10:44:27;;;;;;;9.32;4.30;;;17.60;99.90;;;;;;5020977;28;20037;-75
2022/10/12 10:46:56;;;;;;;7.07;3.85;;;17.70;99.90;;;;;;5035549;28;20349;-74
2022/10/12 10:49:28;;;;;;;8.82;5.20;;;17.70;99.90;;;;;;5020743;28;20534;-74
2022/10/12 10:51:56;;;;;;;7.90;3.90;;;17.80;99.90;;;;;;5027049;28;20056;-74
2022/10/12 10:54:22;;;;;;;8.85;5.40;;;17.90;99.90;;;;;;5025005;28;20561;-74
2022/10/12 10:56:56;;;;;;;6.47;3.97;;;18.00;99.90;;;;;;5024334;28;20057;-74
2022/10/12 10:59:32;;;;;;;9.90;3.80;;;18.20;99.90;;;;;;5024060;28;20033;-74
2022/10/12 11:02:19;;;;;;;7.78;4.25;;;18.40;99.90;;;;;;5029159;28;20171;-74
2022/10/12 11:04:51;;;;;;;10.13;4.68;;;18.10;99.90;;;;;;5031680;28;20036;-74
2022/10/12 11:07:23;;;;;;;7.05;4.22;;;18.10;99.90;;;;;;5032066;28;20860;-74
2022/10/12 11:09:53;;;;;;;8.98;3.60;;;18.30;99.90;;;;;;5027325;28;20030;-74
2022/10/12 11:12:28;;;;;;;6.38;3.85;;;18.30;99.90;;;;;;5022030;28;20033;-73
2022/10/12 11:15:00;;;;;;;7.20;4.60;;;18.50;99.90;;;;;;4978443;28;1365640;-73
2022/10/12 11:17:33;;;;;;;8.27;3.90;;;18.60;99.90;;;;;;5028568;28;20090;-76
2022/10/12 11:20:23;;;;;;;7.28;4.05;;;18.60;99.90;;;;;;5026658;28;20526;-75
2022/10/12 11:23:08;;;;;;;10.23;3.80;;;18.70;99.90;;;;;;5023014;28;20133;-76
2022/10/12 11:25:58;;;;;;;8.05;3.75;;;18.50;99.90;;;;;;5031228;28;20026;-76
2022/10/12 11:28:30;;;;;;;6.95;3.35;;;18.70;99.90;;;;;;5021260;28;20025;-76
2022/10/12 11:30:56;;;;;;;11.20;4.25;;;18.90;99.90;;;;;;5020451;28;20075;-76
2022/10/12 11:33:43;;;;;;;9.43;4.15;;;19.20;99.90;;;;;;5020873;28;20017;-75
2022/10/12 11:36:13;;;;;;;5.93;3.25;;;19.00;99.80;;;;;;5021616;28;20034;-75
2022/10/12 11:38:55;;;;;;;6.57;3.40;;;19.00;99.90;;;;;;5021673;28;20033;-76
2022/10/12 11:41:45;;;;;;;9.07;3.83;;;19.20;99.60;;;;;;5021715;28;20789;-76
2022/10/12 11:44:30;;;;;;;7.25;3.22;;;19.40;98.80;;;;;;5020256;28;20025;-76
2022/10/12 11:47:03;;;;;;;11.00;3.47;;;19.40;98.90;;;;;;5025059;28;20095;-75
2022/10/12 11:49:37;;;;;;;6.27;3.70;;;19.40;99.20;;;;;;5022778;28;20025;-75
2022/10/12 11:52:08;;;;;;;5.22;2.97;;;19.50;98.90;;;;;;5022706;28;20098;-76
2022/10/12 11:54:58;;;;;;;6.22;3.17;;;19.50;99.00;;;;;;5026990;28;20106;-75
2022/10/12 11:57:29;;;;;;;8.27;3.28;;;19.50;98.60;;;;;;5027991;28;20233;-76
2022/10/12 12:00:03;;;;;;;6.97;3.33;;;19.50;98.90;;;;;;5024106;28;20029;-75
2022/10/12 12:02:37;;;;;;;9.80;3.83;;;19.30;98.70;;;;;;5020118;28;20382;-76
2022/10/12 12:05:04;;;;;;;6.90;3.72;;;19.50;99.30;;;;;;5020661;28;20060;-75
2022/10/12 12:07:48;;;;;;;7.47;3.17;;;19.60;98.70;;;;;;5020609;28;20029;-76
2022/10/12 12:10:36;;;;;;;5.75;3.45;;;19.70;98.30;;;;;;5025022;28;20037;-75
2022/10/12 12:13:13;;;;;;;9.25;3.88;;;19.60;98.20;;;;;;5027458;28;20091;-74
2022/10/12 12:15:41;;;;;;;5.97;3.25;;;19.70;98.70;;;;;;5024333;28;20029;-74
2022/10/12 12:18:16;;;;;;;7.60;3.63;;;19.80;98.80;;;;;;5025227;28;20083;-74
2022/10/12 12:20:41;;;;;;;6.55;3.90;;;19.60;98.40;;;;;;5027863;28;20099;-75
2022/10/12 12:23:21;;;;;;;9.38;3.65;;;19.50;98.40;;;;;;5025790;28;20103;-74
2022/10/12 12:26:02;;;;;;;5.78;3.53;;;19.60;98.80;;;;;;5029320;28;20029;-74
2022/10/12 12:28:28;;;;;;;8.77;3.67;;;19.60;98.50;;;;;;5033400;28;20030;-74
2022/10/12 12:31:00;;;;;;;9.60;3.75;;;19.60;98.60;;;;;;5029021;28;20029;-74
2022/10/12 12:33:30;;;;;;;11.30;3.88;;;19.70;98.20;;;;;;5028441;28;20029;-74
2022/10/12 12:36:03;;;;;;;4.88;3.13;;;19.90;98.20;;;;;;5024422;28;20025;-74
2022/10/12 12:38:40;;;;;;;9.57;4.07;;;20.10;98.10;;;;;;5025048;28;20029;-74
2022/10/12 12:41:15;;;;;;;6.13;2.90;;;20.30;98.00;;;;;;5023742;28;20040;-74
2022/10/12 12:43:44;;;;;;;6.03;2.92;;;20.30;97.50;;;;;;5022912;28;20064;-74
2022/10/12 12:46:12;;;;;;;8.55;3.85;;;20.20;97.70;;;;;;5023616;28;20510;-73
2022/10/12 12:48:38;;;;;;;7.75;3.55;;;20.10;97.70;;;;;;5024485;28;20060;-74
2022/10/12 12:51:09;;;;;;;4.82;3.20;;;20.30;98.60;;;;;;5030158;28;20457;-75
2022/10/12 12:53:38;;;;;;;13.48;4.25;;;20.30;97.80;;;;;;5022049;28;20040;-74
2022/10/12 12:56:27;;;;;;;6.05;3.53;;;20.60;98.10;;;;;;5023890;28;20530;-74
2022/10/12 12:59:31;;;;;;;11.68;3.58;;;20.60;98.30;;;;;;5028113;28;23672;-74
2022/10/12 13:02:17;;;;;;;7.35;3.97;;;20.80;98.50;;;;;;5031040;28;20495;-74